Anadarko, OK (73005)

6:04 AM CDT on August 29, 2015 (GMT -0500)
Peck's country | | Change Station
CLOSE
Current Station
Personal Weather Station
Location: Anadarko, OK
Elevation: 1255 ft
Nearby Weather Stations

Elev 1255 ft 35.10 °N, 98.32 °W | Updated 4 minutes ago

Partly Cloudy
Partly Cloudy
70.2 °F
Feels Like 70 °F
N
0.0
Wind Variable Wind from North
Gusts 0.0 mph

Today
High -- | Low -- °F
--% Chance of Precip.
Yesterday
High -- | Low -- °F
Precip. -- in
7:03 AM 8:04 PM
Full, 100% visible
Pressure 29.97 in
Visibility 10.0 miles
Clouds Clear
Heat Index 70 °F
Dew Point 64 °F
Humidity 82%
Rainfall 0.00 in
Snow Depth Not available.
UV 0 out of 12
Pollen 9.30 out of 12
Air Quality Not available.
Flu Activity Not available.
METAR KCHK 291055Z AUTO 00000KT 10SM CLR 20/18 A2997 RMK AO2
Pressure 29.97 in
Visibility 10.0 miles
Clouds Clear
Heat Index 70 °F
Dew Point 64 °F
Humidity 82%
Rainfall 0.00 in
Snow Depth Not available.
UV 0 out of 12
Pollen 9.30 out of 12
Air Quality Not available.
Flu Activity Not available.
METAR KCHK 291055Z AUTO 00000KT 10SM CLR 20/18 A2997 RMK AO2

10-Day Weather Forecast

×

Almanac

Astronomy

Aug. 29, 2015 Rise Set
Actual Time
Civil Twilight
Nautical Twilight
Astronomical Twilight
Moon
Length of Visible Light
Length of Day
Tomorrow will be .
, % of the Moon is Illuminated

Today's Extremes

State Highs State Lows

Community

WunderPhotos

Upload Photos

1,850,651 photos uploaded!

WunderBlogs® & News

Nearby

Air Quality

  Air Quality AQ Index Pollutant
Not available.

Snow Depth

Station Depth Elevation

Earthquake Activity

City Distance Mag. Time & Date
Minimum magnitude displayed is 2.5.

Coastal Water Temperatures

Place Temperature

Stations

Nearby Weather Stations

Station Location Temp. Windchill Dew Point Humidity Wind Precip. Elev Updated Type